sensor_id;sensor_type;location;lat;lon;timestamp;temperature;humidity
48579;DHT22;34357;51.948;6.132;2022-08-11T00:02:32;20.30;58.80
48579;DHT22;34357;51.948;6.132;2022-08-11T00:05:09;20.20;58.80
48579;DHT22;34357;51.948;6.132;2022-08-11T00:07:48;20.20;59.10
48579;DHT22;34357;51.948;6.132;2022-08-11T00:10:20;20.10;59.40
48579;DHT22;34357;51.948;6.132;2022-08-11T00:13:02;20.00;59.50
48579;DHT22;34357;51.948;6.132;2022-08-11T00:15:38;19.90;60.20
48579;DHT22;34357;51.948;6.132;2022-08-11T00:18:06;19.90;60.60
48579;DHT22;34357;51.948;6.132;2022-08-11T00:20:34;19.90;60.30
48579;DHT22;34357;51.948;6.132;2022-08-11T00:23:08;19.90;61.30
48579;DHT22;34357;51.948;6.132;2022-08-11T00:25:39;19.80;61.20
48579;DHT22;34357;51.948;6.132;2022-08-11T00:28:32;19.80;61.60
48579;DHT22;34357;51.948;6.132;2022-08-11T00:31:02;19.70;61.90
48579;DHT22;34357;51.948;6.132;2022-08-11T00:33:39;19.60;62.10
48579;DHT22;34357;51.948;6.132;2022-08-11T00:36:08;19.50;62.30
48579;DHT22;34357;51.948;6.132;2022-08-11T00:38:37;19.50;61.90
48579;DHT22;34357;51.948;6.132;2022-08-11T00:41:28;19.50;61.90
48579;DHT22;34357;51.948;6.132;2022-08-11T00:44:18;19.50;62.00
48579;DHT22;34357;51.948;6.132;2022-08-11T00:46:54;19.40;62.50
48579;DHT22;34357;51.948;6.132;2022-08-11T00:52:47;19.40;62.60
48579;DHT22;34357;51.948;6.132;2022-08-11T01:09:48;19.20;63.00
48579;DHT22;34357;51.948;6.132;2022-08-11T01:44:16;18.60;65.30
48579;DHT22;34357;51.948;6.132;2022-08-11T01:47:25;18.60;65.30
48579;DHT22;34357;51.948;6.132;2022-08-11T01:50:34;18.50;65.90
48579;DHT22;34357;51.948;6.132;2022-08-11T01:53:20;18.50;66.20
48579;DHT22;34357;51.948;6.132;2022-08-11T01:56:04;18.40;66.60
48579;DHT22;34357;51.948;6.132;2022-08-11T01:58:44;18.40;66.60
48579;DHT22;34357;51.948;6.132;2022-08-11T02:04:08;18.40;66.60
48579;DHT22;34357;51.948;6.132;2022-08-11T02:06:44;18.40;66.40
48579;DHT22;34357;51.948;6.132;2022-08-11T02:12:50;18.30;67.30
48579;DHT22;34357;51.948;6.132;2022-08-11T02:15:24;18.30;67.00
48579;DHT22;34357;51.948;6.132;2022-08-11T02:18:23;18.30;66.80
48579;DHT22;34357;51.948;6.132;2022-08-11T02:21:10;18.30;66.70
48579;DHT22;34357;51.948;6.132;2022-08-11T02:24:03;18.20;67.10
48579;DHT22;34357;51.948;6.132;2022-08-11T02:26:42;18.20;67.10
48579;DHT22;34357;51.948;6.132;2022-08-11T02:29:22;18.10;67.60
48579;DHT22;34357;51.948;6.132;2022-08-11T02:31:58;18.10;67.70
48579;DHT22;34357;51.948;6.132;2022-08-11T02:37:23;18.00;68.20
48579;DHT22;34357;51.948;6.132;2022-08-11T02:48:24;17.90;68.80
48579;DHT22;34357;51.948;6.132;2022-08-11T02:54:16;17.80;69.50
48579;DHT22;34357;51.948;6.132;2022-08-11T02:56:59;17.70;70.50
48579;DHT22;34357;51.948;6.132;2022-08-11T02:59:32;17.70;70.60
48579;DHT22;34357;51.948;6.132;2022-08-11T03:11:13;17.50;71.50
48579;DHT22;34357;51.948;6.132;2022-08-11T03:14:12;17.40;71.60
48579;DHT22;34357;51.948;6.132;2022-08-11T03:17:09;17.40;71.50
48579;DHT22;34357;51.948;6.132;2022-08-11T03:20:04;17.40;71.90
48579;DHT22;34357;51.948;6.132;2022-08-11T03:28:35;17.30;72.20
48579;DHT22;34357;51.948;6.132;2022-08-11T03:31:34;17.30;72.40
48579;DHT22;34357;51.948;6.132;2022-08-11T03:34:11;17.20;72.70
48579;DHT22;34357;51.948;6.132;2022-08-11T03:39:37;17.10;72.90
48579;DHT22;34357;51.948;6.132;2022-08-11T03:42:22;17.10;73.30
48579;DHT22;34357;51.948;6.132;2022-08-11T04:10:28;16.80;74.50
48579;DHT22;34357;51.948;6.132;2022-08-11T04:16:40;16.80;74.70
48579;DHT22;34357;51.948;6.132;2022-08-11T04:36:08;16.70;75.80
48579;DHT22;34357;51.948;6.132;2022-08-11T04:39:02;16.60;75.90
48579;DHT22;34357;51.948;6.132;2022-08-11T04:56:23;16.70;76.40
48579;DHT22;34357;51.948;6.132;2022-08-11T05:02:22;16.70;76.50
48579;DHT22;34357;51.948;6.132;2022-08-11T05:13:09;16.80;76.50
48579;DHT22;34357;51.948;6.132;2022-08-11T05:16:14;16.80;76.60
48579;DHT22;34357;51.948;6.132;2022-08-11T05:19:00;16.80;76.70
48579;DHT22;34357;51.948;6.132;2022-08-11T05:21:54;16.90;76.80
48579;DHT22;34357;51.948;6.132;2022-08-11T05:24:45;16.90;76.50
48579;DHT22;34357;51.948;6.132;2022-08-11T05:27:48;16.90;76.30
48579;DHT22;34357;51.948;6.132;2022-08-11T05:30:35;17.00;76.50
48579;DHT22;34357;51.948;6.132;2022-08-11T05:33:24;17.00;76.40
48579;DHT22;34357;51.948;6.132;2022-08-11T05:39:02;17.20;75.90
48579;DHT22;34357;51.948;6.132;2022-08-11T05:41:48;17.20;76.00
48579;DHT22;34357;51.948;6.132;2022-08-11T05:44:34;17.30;75.80
48579;DHT22;34357;51.948;6.132;2022-08-11T05:47:23;17.30;75.90
48579;DHT22;34357;51.948;6.132;2022-08-11T05:50:14;17.40;75.70
48579;DHT22;34357;51.948;6.132;2022-08-11T05:53:01;17.40;75.90
48579;DHT22;34357;51.948;6.132;2022-08-11T05:55:48;17.50;75.30
48579;DHT22;34357;51.948;6.132;2022-08-11T05:58:40;17.60;75.40
48579;DHT22;34357;51.948;6.132;2022-08-11T06:01:07;17.70;75.10
48579;DHT22;34357;51.948;6.132;2022-08-11T06:03:34;17.80;75.00
48579;DHT22;34357;51.948;6.132;2022-08-11T06:06:24;17.80;74.70
48579;DHT22;34357;51.948;6.132;2022-08-11T06:08:55;17.90;74.30
48579;DHT22;34357;51.948;6.132;2022-08-11T06:11:24;17.90;74.30
48579;DHT22;34357;51.948;6.132;2022-08-11T06:13:50;18.00;74.40
48579;DHT22;34357;51.948;6.132;2022-08-11T06:16:22;18.10;74.00
48579;DHT22;34357;51.948;6.132;2022-08-11T06:18:49;18.20;73.80
48579;DHT22;34357;51.948;6.132;2022-08-11T06:21:16;18.30;73.10
48579;DHT22;34357;51.948;6.132;2022-08-11T06:23:43;18.40;72.80
48579;DHT22;34357;51.948;6.132;2022-08-11T06:26:11;18.50;72.80
48579;DHT22;34357;51.948;6.132;2022-08-11T06:28:39;18.60;72.60
48579;DHT22;34357;51.948;6.132;2022-08-11T06:31:13;18.80;72.20
48579;DHT22;34357;51.948;6.132;2022-08-11T06:33:53;19.10;71.10
48579;DHT22;34357;51.948;6.132;2022-08-11T06:36:37;19.40;69.20
48579;DHT22;34357;51.948;6.132;2022-08-11T06:41:44;20.50;65.20
48579;DHT22;34357;51.948;6.132;2022-08-11T06:46:51;21.60;62.60
48579;DHT22;34357;51.948;6.132;2022-08-11T06:49:32;22.40;60.10
48579;DHT22;34357;51.948;6.132;2022-08-11T06:52:17;22.90;58.50
48579;DHT22;34357;51.948;6.132;2022-08-11T06:54:50;23.60;56.20
48579;DHT22;34357;51.948;6.132;2022-08-11T06:57:29;23.90;53.90
48579;DHT22;34357;51.948;6.132;2022-08-11T07:00:16;24.30;52.30
48579;DHT22;34357;51.948;6.132;2022-08-11T07:03:05;24.60;51.30
48579;DHT22;34357;51.948;6.132;2022-08-11T07:14:27;25.80;48.50
48579;DHT22;34357;51.948;6.132;2022-08-11T07:17:19;25.90;48.00
48579;DHT22;34357;51.948;6.132;2022-08-11T07:19:51;25.90;48.00
48579;DHT22;34357;51.948;6.132;2022-08-11T07:22:37;26.10;48.20
48579;DHT22;34357;51.948;6.132;2022-08-11T07:25:23;26.30;47.30
48579;DHT22;34357;51.948;6.132;2022-08-11T07:28:17;26.00;47.50
48579;DHT22;34357;51.948;6.132;2022-08-11T07:31:11;25.90;46.90
48579;DHT22;34357;51.948;6.132;2022-08-11T07:33:49;26.00;46.70
48579;DHT22;34357;51.948;6.132;2022-08-11T07:36:17;26.20;46.10
48579;DHT22;34357;51.948;6.132;2022-08-11T07:38:46;26.40;44.50
48579;DHT22;34357;51.948;6.132;2022-08-11T07:41:21;26.80;44.50
48579;DHT22;34357;51.948;6.132;2022-08-11T07:43:50;26.80;44.10
48579;DHT22;34357;51.948;6.132;2022-08-11T07:46:17;26.90;43.50
48579;DHT22;34357;51.948;6.132;2022-08-11T07:49:03;26.90;43.80
48579;DHT22;34357;51.948;6.132;2022-08-11T07:51:50;27.10;42.70
48579;DHT22;34357;51.948;6.132;2022-08-11T07:54:35;27.10;41.90
48579;DHT22;34357;51.948;6.132;2022-08-11T07:57:04;27.10;42.50
48579;DHT22;34357;51.948;6.132;2022-08-11T07:59:50;27.00;44.10
48579;DHT22;34357;51.948;6.132;2022-08-11T08:02:39;27.10;42.80
48579;DHT22;34357;51.948;6.132;2022-08-11T08:05:25;27.30;41.80
48579;DHT22;34357;51.948;6.132;2022-08-11T08:08:10;27.50;44.00
48579;DHT22;34357;51.948;6.132;2022-08-11T08:10:58;27.50;42.20
48579;DHT22;34357;51.948;6.132;2022-08-11T08:13:43;27.80;42.00
48579;DHT22;34357;51.948;6.132;2022-08-11T08:16:29;27.90;40.70
48579;DHT22;34357;51.948;6.132;2022-08-11T08:19:15;28.00;40.80
48579;DHT22;34357;51.948;6.132;2022-08-11T08:21:43;28.10;41.10
48579;DHT22;34357;51.948;6.132;2022-08-11T08:24:09;28.10;42.60
48579;DHT22;34357;51.948;6.132;2022-08-11T08:26:36;28.00;40.70
48579;DHT22;34357;51.948;6.132;2022-08-11T08:29:21;28.10;40.30
48579;DHT22;34357;51.948;6.132;2022-08-11T08:32:07;28.20;39.80
48579;DHT22;34357;51.948;6.132;2022-08-11T08:34:36;28.50;39.90
48579;DHT22;34357;51.948;6.132;2022-08-11T08:37:03;28.50;38.00
48579;DHT22;34357;51.948;6.132;2022-08-11T08:39:30;28.50;38.50
48579;DHT22;34357;51.948;6.132;2022-08-11T08:42:01;28.80;38.00
48579;DHT22;34357;51.948;6.132;2022-08-11T08:44:28;28.90;38.70
48579;DHT22;34357;51.948;6.132;2022-08-11T08:46:57;28.90;37.80
48579;DHT22;34357;51.948;6.132;2022-08-11T08:49:48;28.90;37.60
48579;DHT22;34357;51.948;6.132;2022-08-11T08:52:20;29.20;38.30
48579;DHT22;34357;51.948;6.132;2022-08-11T08:54:53;29.60;37.40
48579;DHT22;34357;51.948;6.132;2022-08-11T08:57:22;29.60;37.80
48579;DHT22;34357;51.948;6.132;2022-08-11T08:59:49;29.60;35.90
48579;DHT22;34357;51.948;6.132;2022-08-11T09:02:23;29.70;38.00
48579;DHT22;34357;51.948;6.132;2022-08-11T09:04:49;29.70;36.30
48579;DHT22;34357;51.948;6.132;2022-08-11T09:07:17;29.80;35.00
48579;DHT22;34357;51.948;6.132;2022-08-11T09:09:48;29.90;34.80
48579;DHT22;34357;51.948;6.132;2022-08-11T09:12:15;30.00;35.80
48579;DHT22;34357;51.948;6.132;2022-08-11T09:14:45;30.20;35.10
48579;DHT22;34357;51.948;6.132;2022-08-11T09:17:38;30.40;35.20
48579;DHT22;34357;51.948;6.132;2022-08-11T09:20:09;30.50;34.80
48579;DHT22;34357;51.948;6.132;2022-08-11T09:22:37;30.60;33.90
48579;DHT22;34357;51.948;6.132;2022-08-11T09:25:26;30.70;34.10
48579;DHT22;34357;51.948;6.132;2022-08-11T09:28:13;30.70;34.30
48579;DHT22;34357;51.948;6.132;2022-08-11T09:30:41;30.70;33.90
48579;DHT22;34357;51.948;6.132;2022-08-11T09:33:09;30.90;34.40
48579;DHT22;34357;51.948;6.132;2022-08-11T09:35:39;31.00;34.70
48579;DHT22;34357;51.948;6.132;2022-08-11T09:38:09;31.10;35.10
48579;DHT22;34357;51.948;6.132;2022-08-11T09:41:12;31.20;34.40
48579;DHT22;34357;51.948;6.132;2022-08-11T09:43:42;31.30;34.20
48579;DHT22;34357;51.948;6.132;2022-08-11T09:46:28;31.40;34.00
48579;DHT22;34357;51.948;6.132;2022-08-11T09:48:58;31.40;32.20
48579;DHT22;34357;51.948;6.132;2022-08-11T09:51:28;31.40;33.70
48579;DHT22;34357;51.948;6.132;2022-08-11T09:53:54;31.30;33.40
48579;DHT22;34357;51.948;6.132;2022-08-11T09:56:22;31.40;33.00
48579;DHT22;34357;51.948;6.132;2022-08-11T09:59:08;31.40;33.20
48579;DHT22;34357;51.948;6.132;2022-08-11T10:01:50;31.20;33.10
48579;DHT22;34357;51.948;6.132;2022-08-11T10:04:21;31.40;33.40
48579;DHT22;34357;51.948;6.132;2022-08-11T10:06:52;31.50;34.90
48579;DHT22;34357;51.948;6.132;2022-08-11T10:12:25;31.50;34.30
48579;DHT22;34357;51.948;6.132;2022-08-11T10:14:53;31.60;32.20
48579;DHT22;34357;51.948;6.132;2022-08-11T10:17:42;31.80;33.30
48579;DHT22;34357;51.948;6.132;2022-08-11T10:20:34;31.60;31.70
48579;DHT22;34357;51.948;6.132;2022-08-11T10:23:02;31.60;31.10
48579;DHT22;34357;51.948;6.132;2022-08-11T10:25:47;31.50;30.50
48579;DHT22;34357;51.948;6.132;2022-08-11T10:28:34;31.50;29.90
48579;DHT22;34357;51.948;6.132;2022-08-11T10:31:01;31.70;30.90
48579;DHT22;34357;51.948;6.132;2022-08-11T10:33:47;31.90;30.60
48579;DHT22;34357;51.948;6.132;2022-08-11T10:36:39;32.20;30.60
48579;DHT22;34357;51.948;6.132;2022-08-11T10:39:19;32.30;30.90
48579;DHT22;34357;51.948;6.132;2022-08-11T10:41:46;32.10;29.20
48579;DHT22;34357;51.948;6.132;2022-08-11T10:44:39;31.90;29.40
48579;DHT22;34357;51.948;6.132;2022-08-11T10:47:06;32.00;29.90
48579;DHT22;34357;51.948;6.132;2022-08-11T10:49:52;32.20;27.80
48579;DHT22;34357;51.948;6.132;2022-08-11T10:52:39;32.10;28.60
48579;DHT22;34357;51.948;6.132;2022-08-11T10:55:25;32.00;29.50
48579;DHT22;34357;51.948;6.132;2022-08-11T10:58:10;31.90;28.70
48579;DHT22;34357;51.948;6.132;2022-08-11T11:00:57;31.90;29.70
48579;DHT22;34357;51.948;6.132;2022-08-11T11:03:25;31.80;28.40
48579;DHT22;34357;51.948;6.132;2022-08-11T11:05:59;31.80;28.90
48579;DHT22;34357;51.948;6.132;2022-08-11T11:08:28;32.00;29.20
48579;DHT22;34357;51.948;6.132;2022-08-11T11:11:14;32.30;28.50
48579;DHT22;34357;51.948;6.132;2022-08-11T11:13:43;32.40;30.00
48579;DHT22;34357;51.948;6.132;2022-08-11T11:16:29;32.20;28.10
48579;DHT22;34357;51.948;6.132;2022-08-11T11:19:14;32.20;28.80
48579;DHT22;34357;51.948;6.132;2022-08-11T11:21:46;32.20;29.20
48579;DHT22;34357;51.948;6.132;2022-08-11T11:24:40;32.10;30.50
48579;DHT22;34357;51.948;6.132;2022-08-11T11:27:16;32.40;28.90
48579;DHT22;34357;51.948;6.132;2022-08-11T11:37:51;32.00;28.20
48579;DHT22;34357;51.948;6.132;2022-08-11T11:40:19;32.20;28.30
48579;DHT22;34357;51.948;6.132;2022-08-11T11:42:50;32.00;27.40
48579;DHT22;34357;51.948;6.132;2022-08-11T11:45:20;32.30;27.90
48579;DHT22;34357;51.948;6.132;2022-08-11T11:47:47;32.30;27.90
48579;DHT22;34357;51.948;6.132;2022-08-11T11:50:22;32.40;28.50
48579;DHT22;34357;51.948;6.132;2022-08-11T11:52:50;32.50;27.60
48579;DHT22;34357;51.948;6.132;2022-08-11T11:55:18;32.50;27.40
48579;DHT22;34357;51.948;6.132;2022-08-11T11:57:45;32.50;27.50
48579;DHT22;34357;51.948;6.132;2022-08-11T12:00:39;32.60;29.10
48579;DHT22;34357;51.948;6.132;2022-08-11T12:03:24;32.60;27.70
48579;DHT22;34357;51.948;6.132;2022-08-11T12:05:51;32.50;27.50
48579;DHT22;34357;51.948;6.132;2022-08-11T12:08:20;32.50;26.90
48579;DHT22;34357;51.948;6.132;2022-08-11T12:10:58;32.80;25.80
48579;DHT22;34357;51.948;6.132;2022-08-11T12:13:45;32.80;27.30
48579;DHT22;34357;51.948;6.132;2022-08-11T12:16:16;32.90;25.90
48579;DHT22;34357;51.948;6.132;2022-08-11T12:18:42;32.40;27.40
48579;DHT22;34357;51.948;6.132;2022-08-11T12:21:10;32.50;27.40
48579;DHT22;34357;51.948;6.132;2022-08-11T12:23:40;32.70;28.70
48579;DHT22;34357;51.948;6.132;2022-08-11T12:26:25;32.60;26.70
48579;DHT22;34357;51.948;6.132;2022-08-11T12:29:10;32.70;26.70
48579;DHT22;34357;51.948;6.132;2022-08-11T12:31:38;32.80;27.10
48579;DHT22;34357;51.948;6.132;2022-08-11T12:34:08;32.80;29.00
48579;DHT22;34357;51.948;6.132;2022-08-11T12:36:42;33.00;26.70
48579;DHT22;34357;51.948;6.132;2022-08-11T12:39:12;32.70;26.90
48579;DHT22;34357;51.948;6.132;2022-08-11T12:41:39;32.90;26.90
48579;DHT22;34357;51.948;6.132;2022-08-11T12:44:26;32.70;26.70
48579;DHT22;34357;51.948;6.132;2022-08-11T12:47:16;32.90;26.20
48579;DHT22;34357;51.948;6.132;2022-08-11T12:49:45;32.90;26.30
48579;DHT22;34357;51.948;6.132;2022-08-11T12:52:36;33.10;26.30
48579;DHT22;34357;51.948;6.132;2022-08-11T12:55:12;33.20;26.10
48579;DHT22;34357;51.948;6.132;2022-08-11T12:57:59;33.10;26.90
48579;DHT22;34357;51.948;6.132;2022-08-11T13:00:45;32.90;25.80
48579;DHT22;34357;51.948;6.132;2022-08-11T13:03:32;32.90;26.60
48579;DHT22;34357;51.948;6.132;2022-08-11T13:06:19;32.90;26.40
48579;DHT22;34357;51.948;6.132;2022-08-11T13:08:47;33.00;26.80
48579;DHT22;34357;51.948;6.132;2022-08-11T13:11:15;33.00;26.10
48579;DHT22;34357;51.948;6.132;2022-08-11T13:14:00;33.00;26.70
48579;DHT22;34357;51.948;6.132;2022-08-11T13:16:34;32.90;26.50
48579;DHT22;34357;51.948;6.132;2022-08-11T13:19:22;33.10;26.50
48579;DHT22;34357;51.948;6.132;2022-08-11T13:21:49;32.90;25.30
48579;DHT22;34357;51.948;6.132;2022-08-11T13:24:16;33.20;25.90
48579;DHT22;34357;51.948;6.132;2022-08-11T13:26:43;33.20;25.10
48579;DHT22;34357;51.948;6.132;2022-08-11T13:29:09;33.10;26.90
48579;DHT22;34357;51.948;6.132;2022-08-11T13:31:36;33.10;25.70
48579;DHT22;34357;51.948;6.132;2022-08-11T13:34:02;33.00;26.40
48579;DHT22;34357;51.948;6.132;2022-08-11T13:36:33;32.70;26.00
48579;DHT22;34357;51.948;6.132;2022-08-11T13:39:01;32.90;26.10
48579;DHT22;34357;51.948;6.132;2022-08-11T13:41:28;32.80;26.70
48579;DHT22;34357;51.948;6.132;2022-08-11T13:44:14;32.90;25.90
48579;DHT22;34357;51.948;6.132;2022-08-11T13:46:42;32.70;26.00
48579;DHT22;34357;51.948;6.132;2022-08-11T13:49:09;32.60;26.20
48579;DHT22;34357;51.948;6.132;2022-08-11T13:51:36;32.60;26.00
48579;DHT22;34357;51.948;6.132;2022-08-11T13:54:11;32.50;25.30
48579;DHT22;34357;51.948;6.132;2022-08-11T13:56:41;32.50;25.40
48579;DHT22;34357;51.948;6.132;2022-08-11T13:59:08;32.50;25.20
48579;DHT22;34357;51.948;6.132;2022-08-11T14:01:37;32.50;26.00
48579;DHT22;34357;51.948;6.132;2022-08-11T14:04:10;32.60;26.60
48579;DHT22;34357;51.948;6.132;2022-08-11T14:06:44;32.70;26.00
48579;DHT22;34357;51.948;6.132;2022-08-11T14:09:11;32.70;25.30
48579;DHT22;34357;51.948;6.132;2022-08-11T14:11:40;32.60;24.80
48579;DHT22;34357;51.948;6.132;2022-08-11T14:14:31;32.50;25.40
48579;DHT22;34357;51.948;6.132;2022-08-11T14:17:02;32.40;25.00
48579;DHT22;34357;51.948;6.132;2022-08-11T14:19:31;32.40;25.20
48579;DHT22;34357;51.948;6.132;2022-08-11T14:22:00;32.50;25.50
48579;DHT22;34357;51.948;6.132;2022-08-11T14:24:40;32.40;25.30
48579;DHT22;34357;51.948;6.132;2022-08-11T14:27:09;32.60;25.50
48579;DHT22;34357;51.948;6.132;2022-08-11T14:29:38;32.50;26.30
48579;DHT22;34357;51.948;6.132;2022-08-11T14:32:07;32.50;24.70
48579;DHT22;34357;51.948;6.132;2022-08-11T14:34:34;32.30;24.50
48579;DHT22;34357;51.948;6.132;2022-08-11T14:37:04;32.30;25.50
48579;DHT22;34357;51.948;6.132;2022-08-11T14:39:33;32.40;25.50
48579;DHT22;34357;51.948;6.132;2022-08-11T14:42:05;32.30;25.70
48579;DHT22;34357;51.948;6.132;2022-08-11T14:44:53;32.40;26.00
48579;DHT22;34357;51.948;6.132;2022-08-11T14:47:46;32.30;25.20
48579;DHT22;34357;51.948;6.132;2022-08-11T14:50:16;32.20;25.70
48579;DHT22;34357;51.948;6.132;2022-08-11T14:52:59;32.30;26.80
48579;DHT22;34357;51.948;6.132;2022-08-11T14:55:28;32.20;25.70
48579;DHT22;34357;51.948;6.132;2022-08-11T14:58:16;32.20;25.00
48579;DHT22;34357;51.948;6.132;2022-08-11T15:00:42;32.30;24.60
48579;DHT22;34357;51.948;6.132;2022-08-11T15:03:13;32.30;25.30
48579;DHT22;34357;51.948;6.132;2022-08-11T15:05:50;32.40;25.60
48579;DHT22;34357;51.948;6.132;2022-08-11T15:08:18;32.30;26.10
48579;DHT22;34357;51.948;6.132;2022-08-11T15:10:45;32.30;25.50
48579;DHT22;34357;51.948;6.132;2022-08-11T15:13:15;32.40;26.50
48579;DHT22;34357;51.948;6.132;2022-08-11T15:15:43;32.30;25.40
48579;DHT22;34357;51.948;6.132;2022-08-11T15:18:28;32.40;26.70
48579;DHT22;34357;51.948;6.132;2022-08-11T15:20:55;32.30;25.20
48579;DHT22;34357;51.948;6.132;2022-08-11T15:23:39;32.20;25.80
48579;DHT22;34357;51.948;6.132;2022-08-11T15:26:32;32.00;25.70
48579;DHT22;34357;51.948;6.132;2022-08-11T15:29:24;32.00;26.20
48579;DHT22;34357;51.948;6.132;2022-08-11T15:32:09;32.00;25.80
48579;DHT22;34357;51.948;6.132;2022-08-11T15:34:57;32.00;25.60
48579;DHT22;34357;51.948;6.132;2022-08-11T15:38:01;32.00;26.00
48579;DHT22;34357;51.948;6.132;2022-08-11T15:40:30;32.20;25.80
48579;DHT22;34357;51.948;6.132;2022-08-11T15:43:42;32.10;25.70
48579;DHT22;34357;51.948;6.132;2022-08-11T15:46:31;32.00;25.70
48579;DHT22;34357;51.948;6.132;2022-08-11T15:49:13;31.90;26.30
48579;DHT22;34357;51.948;6.132;2022-08-11T15:51:48;31.80;25.80
48579;DHT22;34357;51.948;6.132;2022-08-11T15:54:18;31.80;25.40
48579;DHT22;34357;51.948;6.132;2022-08-11T15:56:48;31.80;25.60
48579;DHT22;34357;51.948;6.132;2022-08-11T15:59:16;31.70;26.30
48579;DHT22;34357;51.948;6.132;2022-08-11T16:02:03;31.80;25.30
48579;DHT22;34357;51.948;6.132;2022-08-11T16:04:56;31.90;25.50
48579;DHT22;34357;51.948;6.132;2022-08-11T16:07:26;31.70;26.30
48579;DHT22;34357;51.948;6.132;2022-08-11T16:10:02;31.70;25.90
48579;DHT22;34357;51.948;6.132;2022-08-11T16:12:56;31.70;25.90
48579;DHT22;34357;51.948;6.132;2022-08-11T16:15:50;31.70;27.00
48579;DHT22;34357;51.948;6.132;2022-08-11T16:18:37;31.60;25.80
48579;DHT22;34357;51.948;6.132;2022-08-11T16:21:12;31.50;26.00
48579;DHT22;34357;51.948;6.132;2022-08-11T16:23:41;31.50;26.00
48579;DHT22;34357;51.948;6.132;2022-08-11T16:26:08;31.40;26.90
48579;DHT22;34357;51.948;6.132;2022-08-11T16:28:35;31.40;26.90
48579;DHT22;34357;51.948;6.132;2022-08-11T16:31:03;31.20;27.70
48579;DHT22;34357;51.948;6.132;2022-08-11T16:33:37;31.30;26.80
48579;DHT22;34357;51.948;6.132;2022-08-11T16:36:06;31.30;26.80
48579;DHT22;34357;51.948;6.132;2022-08-11T16:38:56;31.30;26.90
48579;DHT22;34357;51.948;6.132;2022-08-11T16:41:23;31.30;27.10
48579;DHT22;34357;51.948;6.132;2022-08-11T16:44:13;31.30;26.70
48579;DHT22;34357;51.948;6.132;2022-08-11T16:46:59;31.30;26.60
48579;DHT22;34357;51.948;6.132;2022-08-11T16:49:37;31.20;27.00
48579;DHT22;34357;51.948;6.132;2022-08-11T16:52:05;31.20;27.30
48579;DHT22;34357;51.948;6.132;2022-08-11T16:54:35;31.20;27.10
48579;DHT22;34357;51.948;6.132;2022-08-11T16:57:23;31.10;27.50
48579;DHT22;34357;51.948;6.132;2022-08-11T17:00:10;31.10;27.30
48579;DHT22;34357;51.948;6.132;2022-08-11T17:02:50;31.10;27.30
48579;DHT22;34357;51.948;6.132;2022-08-11T17:05:36;31.00;27.70
48579;DHT22;34357;51.948;6.132;2022-08-11T17:08:49;31.00;28.10
48579;DHT22;34357;51.948;6.132;2022-08-11T17:11:49;30.90;28.30
48579;DHT22;34357;51.948;6.132;2022-08-11T17:14:42;30.80;27.80
48579;DHT22;34357;51.948;6.132;2022-08-11T17:17:20;30.80;28.50
48579;DHT22;34357;51.948;6.132;2022-08-11T17:19:51;30.80;28.60
48579;DHT22;34357;51.948;6.132;2022-08-11T17:22:18;30.90;28.10
48579;DHT22;34357;51.948;6.132;2022-08-11T17:25:04;30.80;27.90
48579;DHT22;34357;51.948;6.132;2022-08-11T17:27:33;30.70;27.60
48579;DHT22;34357;51.948;6.132;2022-08-11T17:30:04;30.60;28.80
48579;DHT22;34357;51.948;6.132;2022-08-11T17:32:32;30.60;28.40
48579;DHT22;34357;51.948;6.132;2022-08-11T17:35:20;30.50;28.40
48579;DHT22;34357;51.948;6.132;2022-08-11T17:40:48;30.40;28.50
48579;DHT22;34357;51.948;6.132;2022-08-11T17:43:35;30.40;29.00
48579;DHT22;34357;51.948;6.132;2022-08-11T17:46:21;30.40;29.60
48579;DHT22;34357;51.948;6.132;2022-08-11T17:49:10;30.30;29.70
48579;DHT22;34357;51.948;6.132;2022-08-11T17:51:38;30.20;30.00
48579;DHT22;34357;51.948;6.132;2022-08-11T17:54:24;30.10;30.00
48579;DHT22;34357;51.948;6.132;2022-08-11T17:57:09;30.00;30.00
48579;DHT22;34357;51.948;6.132;2022-08-11T17:59:55;29.90;29.90
48579;DHT22;34357;51.948;6.132;2022-08-11T18:02:28;29.90;30.10
48579;DHT22;34357;51.948;6.132;2022-08-11T18:05:15;29.80;29.70
48579;DHT22;34357;51.948;6.132;2022-08-11T18:07:43;29.70;29.80
48579;DHT22;34357;51.948;6.132;2022-08-11T18:10:30;29.60;29.30
48579;DHT22;34357;51.948;6.132;2022-08-11T18:13:19;29.50;29.90
48579;DHT22;34357;51.948;6.132;2022-08-11T18:16:05;29.50;30.40
48579;DHT22;34357;51.948;6.132;2022-08-11T18:18:49;29.40;30.60
48579;DHT22;34357;51.948;6.132;2022-08-11T18:21:34;29.20;30.60
48579;DHT22;34357;51.948;6.132;2022-08-11T18:24:22;29.10;31.50
48579;DHT22;34357;51.948;6.132;2022-08-11T18:27:09;29.00;31.20
48579;DHT22;34357;51.948;6.132;2022-08-11T18:29:55;28.90;31.50
48579;DHT22;34357;51.948;6.132;2022-08-11T18:32:41;28.80;31.90
48579;DHT22;34357;51.948;6.132;2022-08-11T18:35:26;28.70;31.80
48579;DHT22;34357;51.948;6.132;2022-08-11T18:38:13;28.50;32.00
48579;DHT22;34357;51.948;6.132;2022-08-11T18:41:00;28.40;32.60
48579;DHT22;34357;51.948;6.132;2022-08-11T18:43:48;28.30;32.80
48579;DHT22;34357;51.948;6.132;2022-08-11T18:46:38;28.20;33.20
48579;DHT22;34357;51.948;6.132;2022-08-11T18:49:28;28.00;33.70
48579;DHT22;34357;51.948;6.132;2022-08-11T18:52:17;27.90;34.30
48579;DHT22;34357;51.948;6.132;2022-08-11T18:55:07;27.80;34.60
48579;DHT22;34357;51.948;6.132;2022-08-11T18:57:55;27.60;35.10
48579;DHT22;34357;51.948;6.132;2022-08-11T19:00:45;27.50;35.50
48579;DHT22;34357;51.948;6.132;2022-08-11T19:03:32;27.40;35.30
48579;DHT22;34357;51.948;6.132;2022-08-11T19:06:22;27.30;36.00
48579;DHT22;34357;51.948;6.132;2022-08-11T19:09:13;27.20;36.10
48579;DHT22;34357;51.948;6.132;2022-08-11T19:11:59;27.10;36.10
48579;DHT22;34357;51.948;6.132;2022-08-11T19:14:48;27.00;36.30
48579;DHT22;34357;51.948;6.132;2022-08-11T19:17:37;26.90;36.70
48579;DHT22;34357;51.948;6.132;2022-08-11T19:20:27;26.70;36.60
48579;DHT22;34357;51.948;6.132;2022-08-11T19:23:23;26.70;37.00
48579;DHT22;34357;51.948;6.132;2022-08-11T19:26:10;26.60;37.40
48579;DHT22;34357;51.948;6.132;2022-08-11T19:28:57;26.50;37.70
48579;DHT22;34357;51.948;6.132;2022-08-11T19:31:45;26.40;37.90
48579;DHT22;34357;51.948;6.132;2022-08-11T19:34:30;26.30;38.40
48579;DHT22;34357;51.948;6.132;2022-08-11T19:37:15;26.20;38.70
48579;DHT22;34357;51.948;6.132;2022-08-11T19:40:06;26.10;39.20
48579;DHT22;34357;51.948;6.132;2022-08-11T19:42:53;26.10;39.00
48579;DHT22;34357;51.948;6.132;2022-08-11T19:45:41;26.00;39.00
48579;DHT22;34357;51.948;6.132;2022-08-11T19:48:28;25.90;39.40
48579;DHT22;34357;51.948;6.132;2022-08-11T19:51:16;25.90;39.80
48579;DHT22;34357;51.948;6.132;2022-08-11T19:54:02;25.70;39.70
48579;DHT22;34357;51.948;6.132;2022-08-11T19:56:47;25.70;40.30